Airfield :
LOGIN :

Register | Disclaimer

   EN    FR    IT 

 










Legend :    VFR   Marginal VFR   IFR   Intensive IFR   Very Intensive IFR
Visi :
Ceiling :
>= 8 km
>= 3000ft
5 to 8 km
1000 to 3000 ft
1500m to 5 km
500 to 1000 ft
800 to 1500m
200 to 500 ft
< 800m
< 200 ft
Symbols :   Thunderstorms  Fog  Heavy snow  Heavy precipitations  Wind > 20 kt
SIGMETs :     Misc.  Thunderstorms  Icing  Turbulence  Mountain Waves  Volcanic Ashes







- Airport Elevation : 327 ft
- IATA code : BHX
- Download approach charts


EGBB - Birmingham

CURRENT METAR :
  • 201720Z 07011KT 9999 BKN018 04/02 Q1008

EXPIRED METARs :
  • 201650Z 07010KT 9999 BKN018 04/02 Q1008
  • 201620Z 06011KT 9999 BKN017 04/02 Q1008
  • 201550Z 05009KT 9999 -DZ BKN016 04/02 Q1008
  • 201520Z 06009KT 9999 -RA BKN018CB 04/02 Q1008
  • 201450Z 05010KT 9999 -SHRA BKN017CB 05/03 Q1008

TAF TAF EGBB
Valid from the 20 at 18:00 until the 21 at 18:00 UTC


201658Z 2018/2118 06012KT 9999 SCT010 BKN020
TEMPO 2018/2021 7000 -RA BKN010
BECMG 2021/2024 BKN010
PROB30
TEMPO 2021/2106 6000 SHRA BKN008
BECMG 2103/2106 13009KT
BECMG 2108/2111 SCT020
ATIS : +44 121 780 0910
No reported NOTAMs for that airfield.
2 SIGMETs reported for the London FIR (EGTT) :
 
Severe mountain waves
EGTT SIGMET 03 VALID 201700/202100 EGRR
EGTT LONDON FIR SEV MTW FCST WI N5500 W00220 - N5322 W00134 - N5158 W00304 - N5149 W00510 - N5500 W00447 - N5500 W00220 FL030/120 MOV N 10KT NC=
Severe mountain waves
EGTT SIGMET 02 VALID 201300/201700 EGRR
EGTT LONDON FIR SEV MTW FCST WI N5322 W00134 - N5149 W00328 - N5130 W00504 - N5500 W00447 - N5500 W00220 - N5322 W00134 FL030/120 STNR NC=



MET'MAP, your aeronautical weather chart ! - Copyright ORBIFLY December 2007 - Disclaimer

ORBIFLY MET'MAP TEAM :

Programming & Development : Alexandra Zaïnal
Concept & Development : Baudouin d'Aumeries
Co-Development & Prog : Marc-Olivier Méhu
Technical & hardware support : Manuel Goepfert

Contact : metmap@orbifly.com




SOURCES & CREDITS :

   NOAA